Terminal Aerodrome Forecast
Issued by NWS

Home | Current Version | Previous Version | Text Only | Print | Product List | Glossary Off
Versions: 1 2 3 4 5 6 7 8 9 10 11 12 13 14

000
FTUS43 KGRB 172336
TAFAUW
TAF
KAUW 172336Z 1800/1824 29015G25KT P6SM VCSH SCT012 OVC027
      TEMPO 1800/1801 -RA OVC012
     FM180100 29012G20KT P6SM OVC012
      TEMPO 1814/1816 BKN025
     FM181600 30011G18KT P6SM SCT025 BKN040=

USA.gov is the U.S. government's official web portal to all federal, state and local government web resources and services.